Time;durP1;ratioP1;P1;durP2;ratioP2;P2;SDS_P1;SDS_P2;PMS_P1;PMS_P2;Temp;Humidity;BMP_temperature;BMP_pressure;BME280_temperature;BME280_humidity;BME280_pressure;Samples;Min_cycle;Max_cycle;Signal;HPM_P1;HPM_P2
2022/01/07 00:01:23;;;;;;;9.93;9.63;;;-1.60;99.90;;;;;;5098854;28;20235;-76
2022/01/07 00:03:51;;;;;;;10.20;9.90;;;-1.60;99.90;;;;;;5099418;28;20214;-76
2022/01/07 00:06:20;;;;;;;10.00;9.70;;;-1.60;99.90;;;;;;5098273;28;20280;-77
2022/01/07 00:08:47;;;;;;;9.90;9.60;;;-1.60;99.90;;;;;;5095727;28;20252;-78
2022/01/07 00:11:19;;;;;;;10.17;9.87;;;-1.60;99.90;;;;;;5091844;28;20240;-80
2022/01/07 00:13:47;;;;;;;10.00;9.70;;;-1.60;99.90;;;;;;5090447;28;20230;-79
2022/01/07 00:16:16;;;;;;;10.30;10.00;;;-1.60;99.90;;;;;;5089673;28;20254;-80
2022/01/07 00:18:44;;;;;;;10.10;9.80;;;-1.60;99.90;;;;;;5088875;28;20230;-80
2022/01/07 00:21:15;;;;;;;9.93;9.63;;;-1.60;99.90;;;;;;5088791;28;20248;-80
2022/01/07 00:23:44;;;;;;;9.90;9.60;;;-1.60;99.90;;;;;;5087713;28;20229;-79
2022/01/07 00:26:13;;;;;;;9.90;9.60;;;-1.60;99.90;;;;;;5085183;28;20236;-80
2022/01/07 00:28:42;;;;;;;9.97;9.67;;;-1.60;99.90;;;;;;5084776;28;20279;-80
2022/01/07 00:31:12;;;;;;;10.00;9.70;;;-1.60;99.90;;;;;;5084832;28;20235;-79
2022/01/07 00:33:40;;;;;;;9.87;9.57;;;-1.50;99.90;;;;;;5084564;28;20256;-79
2022/01/07 00:36:12;;;;;;;10.40;10.10;;;-1.50;99.90;;;;;;5091151;28;20213;-78
2022/01/07 00:38:40;;;;;;;10.10;9.80;;;-1.50;99.90;;;;;;5096888;28;20227;-80
2022/01/07 00:41:08;;;;;;;10.00;9.70;;;-1.60;99.90;;;;;;5087357;28;20244;-80
2022/01/07 00:43:40;;;;;;;10.20;9.90;;;-1.60;99.90;;;;;;5084711;28;20298;-80
2022/01/07 00:46:10;;;;;;;10.50;10.20;;;-1.60;99.90;;;;;;5085558;28;20250;-80
2022/01/07 00:48:38;;;;;;;10.27;9.97;;;-1.60;99.90;;;;;;5085105;28;20237;-80
2022/01/07 00:51:07;;;;;;;10.10;9.80;;;-1.60;99.90;;;;;;5084430;28;20271;-79
2022/01/07 00:53:36;;;;;;;9.90;9.60;;;-1.60;99.90;;;;;;5083465;28;20233;-80
2022/01/07 00:56:06;;;;;;;10.23;9.93;;;-1.60;99.90;;;;;;5083713;28;20224;-80
2022/01/07 00:58:35;;;;;;;10.20;9.90;;;-1.60;99.90;;;;;;5085421;28;20225;-80
2022/01/07 01:01:04;;;;;;;10.00;9.70;;;-1.60;99.90;;;;;;5083960;28;20236;-79
2022/01/07 01:03:34;;;;;;;10.13;9.83;;;-1.60;99.90;;;;;;5102029;22;20234;-86
2022/01/07 01:06:04;;;;;;;10.20;9.90;;;-1.70;99.90;;;;;;5078691;28;20252;-86
2022/01/07 01:08:32;;;;;;;10.33;10.03;;;-1.70;99.90;;;;;;5078144;28;20237;-84
2022/01/07 01:11:04;;;;;;;10.30;10.00;;;-1.80;99.90;;;;;;5078662;28;20226;-84
2022/01/07 01:13:32;;;;;;;10.30;10.00;;;-1.80;99.90;;;;;;5077905;28;20239;-84
2022/01/07 01:16:01;;;;;;;10.20;9.90;;;-1.80;99.90;;;;;;5078343;28;20231;-84
2022/01/07 01:18:31;;;;;;;10.00;9.70;;;-1.80;99.90;;;;;;5083075;28;20203;-84
2022/01/07 01:21:09;;;;;;;9.97;9.67;;;-1.80;99.90;;;;;;5079684;28;20239;-84
2022/01/07 01:23:40;;;;;;;9.80;9.50;;;-1.80;99.90;;;;;;5078444;28;20249;-84
2022/01/07 01:26:08;;;;;;;10.20;9.90;;;-1.80;99.90;;;;;;5078279;28;20232;-84
2022/01/07 01:28:40;;;;;;;10.10;9.80;;;-1.80;99.90;;;;;;5077848;28;20245;-85
2022/01/07 01:31:09;;;;;;;10.00;9.70;;;-1.80;99.90;;;;;;5060095;28;20236;-86
2022/01/07 01:33:38;;;;;;;10.10;9.80;;;-1.90;99.90;;;;;;5077548;28;20239;-84
2022/01/07 01:36:10;;;;;;;10.00;9.70;;;-1.90;99.90;;;;;;5077778;28;20237;-84
2022/01/07 01:38:40;;;;;;;9.93;9.63;;;-1.90;99.90;;;;;;5078100;28;20235;-85
2022/01/07 01:41:09;;;;;;;10.30;10.00;;;-1.90;99.90;;;;;;5077828;28;20235;-86
2022/01/07 01:43:37;;;;;;;10.20;9.90;;;-2.00;99.90;;;;;;5077653;28;20228;-86
2022/01/07 01:46:05;;;;;;;10.20;9.90;;;-2.00;99.90;;;;;;5077701;28;20226;-86
2022/01/07 01:48:35;;;;;;;9.80;9.50;;;-2.00;99.90;;;;;;5078221;28;20303;-86
2022/01/07 01:51:04;;;;;;;9.87;9.57;;;-2.00;99.90;;;;;;5079071;28;20278;-85
2022/01/07 01:53:43;;;;;;;10.00;9.70;;;-2.00;99.90;;;;;;5077765;28;20291;-85
2022/01/07 01:56:12;;;;;;;10.03;9.73;;;-2.00;99.90;;;;;;5078090;28;20224;-86
2022/01/07 01:58:41;;;;;;;10.03;9.73;;;-2.10;99.90;;;;;;5091830;28;20299;-85
2022/01/07 02:01:11;;;;;;;9.90;9.60;;;-2.10;99.90;;;;;;5078322;28;20244;-86
2022/01/07 02:03:40;;;;;;;10.23;9.93;;;-2.10;99.90;;;;;;5077994;28;20728;-86
2022/01/07 02:06:10;;;;;;;10.20;9.90;;;-2.20;99.90;;;;;;5077436;28;20641;-85
2022/01/07 02:08:49;;;;;;;10.07;9.77;;;-2.20;99.90;;;;;;5077668;28;20236;-86
2022/01/07 02:11:18;;;;;;;9.90;9.60;;;-2.20;99.90;;;;;;5077972;28;20231;-86
2022/01/07 02:13:48;;;;;;;9.80;9.50;;;-2.20;99.90;;;;;;5083985;28;20239;-86
2022/01/07 02:16:16;;;;;;;10.30;10.00;;;-2.10;99.90;;;;;;5077536;28;20288;-84
2022/01/07 02:18:46;;;;;;;9.80;9.50;;;-2.10;99.90;;;;;;5077440;28;20226;-86
2022/01/07 02:24:02;;;;;;;9.93;9.63;;;-2.10;99.90;;;;;;5075951;28;20229;-85
2022/01/07 02:26:33;;;;;;;10.40;10.10;;;-2.00;99.90;;;;;;5076999;28;20244;-85
2022/01/07 02:29:01;;;;;;;10.10;9.80;;;-2.10;99.90;;;;;;5077216;28;20251;-85
2022/01/07 02:31:29;;;;;;;9.70;9.40;;;-2.10;99.90;;;;;;5076864;28;20237;-84
2022/01/07 02:34:02;;;;;;;10.10;9.80;;;-2.10;99.90;;;;;;5076672;28;20254;-86
2022/01/07 02:36:32;;;;;;;9.80;9.50;;;-2.10;99.90;;;;;;5077446;28;20223;-86
2022/01/07 02:39:00;;;;;;;10.20;9.90;;;-2.10;99.90;;;;;;5079500;28;20228;-85
2022/01/07 02:41:28;;;;;;;9.90;9.60;;;-2.10;99.90;;;;;;5081328;28;20238;-86
2022/01/07 02:43:58;;;;;;;10.03;9.73;;;-2.00;99.90;;;;;;5079621;28;20703;-86
2022/01/07 02:46:27;;;;;;;10.00;9.70;;;-2.00;99.90;;;;;;5078780;28;20242;-86
2022/01/07 02:48:57;;;;;;;10.20;9.90;;;-2.10;99.90;;;;;;5085962;28;20243;-86
2022/01/07 02:51:26;;;;;;;9.90;9.60;;;-2.20;99.90;;;;;;5083363;28;20221;-85
2022/01/07 02:54:04;;;;;;;10.13;9.83;;;-2.20;99.90;;;;;;5079608;28;20246;-86
2022/01/07 02:56:34;;;;;;;10.33;10.03;;;-2.20;99.90;;;;;;5077531;28;20312;-85
2022/01/07 02:59:03;;;;;;;10.20;9.90;;;-2.20;99.90;;;;;;5076585;28;20233;-85
2022/01/07 03:01:33;;;;;;;10.10;9.80;;;-2.20;99.90;;;;;;5077124;28;20245;-85
2022/01/07 03:04:03;;;;;;;10.20;9.90;;;-2.20;99.90;;;;;;5076523;28;20242;-86
2022/01/07 03:06:31;;;;;;;9.90;9.60;;;-2.30;99.90;;;;;;5081210;28;20252;-85
2022/01/07 03:09:11;;;;;;;9.77;9.47;;;-2.30;99.90;;;;;;5091463;28;20241;-85
2022/01/07 03:11:39;;;;;;;9.93;9.63;;;-2.30;99.90;;;;;;5096374;28;20339;-83
2022/01/07 03:14:09;;;;;;;9.90;9.60;;;-2.30;99.90;;;;;;5083673;28;20242;-86
2022/01/07 03:16:39;;;;;;;9.77;9.47;;;-2.30;99.90;;;;;;5082155;28;20253;-86
2022/01/07 03:19:07;;;;;;;9.87;9.57;;;-2.30;99.90;;;;;;5081660;28;20226;-86
2022/01/07 03:21:37;;;;;;;9.67;9.37;;;-2.30;99.90;;;;;;5098074;28;20210;-85
2022/01/07 03:24:09;;;;;;;9.80;9.50;;;-2.30;99.90;;;;;;5102482;28;20275;-83
2022/01/07 03:26:38;;;;;;;9.77;9.47;;;-2.30;99.90;;;;;;5103081;28;20198;-83
2022/01/07 03:29:07;;;;;;;9.93;9.63;;;-2.30;99.90;;;;;;5102393;28;20202;-83
2022/01/07 03:31:36;;;;;;;10.10;9.80;;;-2.30;99.90;;;;;;5102882;28;20230;-82
2022/01/07 03:34:06;;;;;;;10.10;9.80;;;-2.30;99.90;;;;;;5102137;28;20223;-84
2022/01/07 03:36:35;;;;;;;10.30;10.00;;;-2.30;99.90;;;;;;5102165;28;20234;-84
2022/01/07 03:39:05;;;;;;;10.10;9.80;;;-2.30;99.90;;;;;;5098708;28;20224;-82
2022/01/07 03:41:37;;;;;;;10.17;9.87;;;-2.30;99.90;;;;;;5100302;28;20260;-83
2022/01/07 03:44:06;;;;;;;10.07;9.77;;;-2.30;99.90;;;;;;5096644;28;20235;-84
2022/01/07 03:46:34;;;;;;;10.10;9.80;;;-2.30;99.90;;;;;;5088521;28;20227;-84
2022/01/07 03:49:03;;;;;;;10.07;9.77;;;-2.30;99.90;;;;;;5087339;28;20218;-84
2022/01/07 03:51:33;;;;;;;9.97;9.67;;;-2.30;99.90;;;;;;5088355;28;20354;-84
2022/01/07 03:54:02;;;;;;;9.93;9.63;;;-2.30;99.90;;;;;;5086392;28;20245;-84
2022/01/07 03:56:32;;;;;;;10.20;9.90;;;-2.30;99.90;;;;;;5085473;28;20227;-85
2022/01/07 03:59:13;;;;;;;10.20;9.90;;;-2.30;99.90;;;;;;5085997;28;20238;-84
2022/01/07 04:01:40;;;;;;;10.40;10.10;;;-2.30;99.90;;;;;;5089099;28;20385;-84
2022/01/07 04:04:08;;;;;;;10.00;9.70;;;-2.30;99.90;;;;;;5082754;28;20243;-85
2022/01/07 04:06:37;;;;;;;10.10;9.80;;;-2.30;99.90;;;;;;5081381;28;20230;-84
2022/01/07 04:09:06;;;;;;;10.40;10.10;;;-2.30;99.90;;;;;;5081574;28;20222;-84
2022/01/07 04:11:38;;;;;;;10.00;9.70;;;-2.30;99.90;;;;;;5080780;28;20242;-84
2022/01/07 04:14:09;;;;;;;10.10;9.80;;;-2.30;99.90;;;;;;5080374;28;20237;-84
2022/01/07 04:16:36;;;;;;;10.00;9.70;;;-2.20;99.90;;;;;;5080122;28;20226;-84
2022/01/07 04:19:05;;;;;;;10.10;9.80;;;-2.30;99.90;;;;;;5078281;28;20236;-84
2022/01/07 04:21:34;;;;;;;10.20;9.90;;;-2.30;99.90;;;;;;5095037;28;20214;-83
2022/01/07 04:24:03;;;;;;;10.03;9.73;;;-2.30;99.90;;;;;;5096065;28;20226;-85
2022/01/07 04:26:33;;;;;;;10.00;9.70;;;-2.30;99.90;;;;;;5080305;28;20242;-85
2022/01/07 04:29:02;;;;;;;9.83;9.53;;;-2.30;99.90;;;;;;5080208;28;20312;-85
2022/01/07 04:31:35;;;;;;;10.40;10.10;;;-2.20;99.90;;;;;;5080132;28;20229;-85
2022/01/07 04:34:02;;;;;;;10.23;9.93;;;-2.30;99.90;;;;;;5078890;28;20235;-85
2022/01/07 04:36:31;;;;;;;10.03;9.73;;;-2.30;99.90;;;;;;5078884;28;20299;-85
2022/01/07 04:39:01;;;;;;;10.10;9.80;;;-2.30;99.90;;;;;;5079510;28;20234;-85
2022/01/07 04:41:30;;;;;;;10.10;9.80;;;-2.30;99.90;;;;;;5078786;28;20230;-84
2022/01/07 04:43:59;;;;;;;10.10;9.80;;;-2.30;99.90;;;;;;5080099;28;20335;-84
2022/01/07 04:46:28;;;;;;;9.97;9.67;;;-2.30;99.90;;;;;;5091297;28;20245;-85
2022/01/07 04:49:02;;;;;;;10.10;9.80;;;-2.30;99.90;;;;;;5081318;28;20222;-84
2022/01/07 04:51:30;;;;;;;10.10;9.80;;;-2.30;99.90;;;;;;5080135;28;20280;-85
2022/01/07 04:53:58;;;;;;;10.20;9.90;;;-2.30;99.90;;;;;;5084894;28;20256;-84
2022/01/07 04:56:26;;;;;;;10.13;9.83;;;-2.30;99.90;;;;;;5080077;28;20226;-84
2022/01/07 04:58:55;;;;;;;10.20;9.90;;;-2.30;99.90;;;;;;5079007;28;20432;-85
2022/01/07 05:01:25;;;;;;;10.33;10.03;;;-2.30;99.90;;;;;;5078778;28;20631;-85
2022/01/07 05:03:54;;;;;;;10.30;10.00;;;-2.30;99.90;;;;;;5077705;28;20246;-85
2022/01/07 05:09:22;;;;;;;10.30;10.00;;;-2.30;99.90;;;;;;5150467;27;1419619;-85
2022/01/07 05:11:56;;;;;;;10.10;9.80;;;-2.30;99.90;;;;;;5179792;27;20226;-86
2022/01/07 05:14:29;;;;;;;10.43;10.13;;;-2.30;99.90;;;;;;5169351;27;20304;-85
2022/01/07 05:16:57;;;;;;;10.10;9.80;;;-2.30;99.90;;;;;;5178823;27;20206;-83
2022/01/07 05:19:25;;;;;;;10.20;9.90;;;-2.30;99.90;;;;;;5175785;27;20237;-85
2022/01/07 05:21:55;;;;;;;10.23;9.93;;;-2.40;99.90;;;;;;5159431;27;20717;-85
2022/01/07 05:24:32;;;;;;;9.90;9.60;;;-2.30;99.90;;;;;;5157768;27;20231;-85
2022/01/07 05:26:59;;;;;;;10.00;9.70;;;-2.40;99.90;;;;;;5157760;27;20223;-85
2022/01/07 05:29:28;;;;;;;10.20;9.90;;;-2.30;99.90;;;;;;5157466;27;20301;-85
2022/01/07 05:31:56;;;;;;;10.23;9.93;;;-2.40;99.90;;;;;;5157937;27;20251;-85
2022/01/07 05:34:25;;;;;;;10.07;9.77;;;-2.30;99.90;;;;;;5156643;27;20617;-85
2022/01/07 05:36:55;;;;;;;9.90;9.60;;;-2.30;99.90;;;;;;5156871;27;20230;-85
2022/01/07 05:39:27;;;;;;;10.03;9.73;;;-2.30;99.90;;;;;;5155292;27;20231;-85
2022/01/07 05:41:55;;;;;;;10.17;9.87;;;-2.30;99.90;;;;;;5143691;27;20228;-85
2022/01/07 05:44:23;;;;;;;9.90;9.60;;;-2.30;99.90;;;;;;5144071;27;20225;-85
2022/01/07 05:46:52;;;;;;;9.90;9.60;;;-2.30;99.90;;;;;;5135454;27;20222;-85
2022/01/07 05:49:21;;;;;;;10.03;9.73;;;-2.30;99.90;;;;;;5142851;27;20228;-85
2022/01/07 05:51:51;;;;;;;10.07;9.77;;;-2.40;99.90;;;;;;5139881;27;20228;-84
2022/01/07 05:54:21;;;;;;;10.10;9.80;;;-2.40;99.90;;;;;;5139067;27;20236;-84
2022/01/07 05:56:53;;;;;;;9.93;9.63;;;-2.40;99.90;;;;;;5137873;27;20216;-84
2022/01/07 05:59:20;;;;;;;9.83;9.53;;;-2.40;99.90;;;;;;5138089;27;20220;-85
2022/01/07 06:01:49;;;;;;;10.20;9.90;;;-2.40;99.90;;;;;;5136673;27;20236;-84
2022/01/07 06:04:18;;;;;;;9.97;9.67;;;-2.40;99.90;;;;;;5135198;27;20232;-85
2022/01/07 06:06:48;;;;;;;9.77;9.47;;;-2.40;99.90;;;;;;5135484;27;20224;-85
2022/01/07 06:09:16;;;;;;;10.03;9.73;;;-2.40;99.90;;;;;;5135395;27;20236;-85
2022/01/07 06:11:47;;;;;;;9.93;9.63;;;-2.40;99.90;;;;;;5134957;27;20231;-85
2022/01/07 06:14:27;;;;;;;9.77;9.47;;;-2.40;99.90;;;;;;5135053;27;20275;-85
2022/01/07 06:16:55;;;;;;;10.10;9.80;;;-2.40;99.90;;;;;;5134995;27;20228;-85
2022/01/07 06:19:24;;;;;;;9.83;9.53;;;-2.30;99.90;;;;;;5129078;27;20339;-85
2022/01/07 06:21:53;;;;;;;9.60;9.30;;;-2.30;99.90;;;;;;5121274;28;20347;-85
2022/01/07 06:24:22;;;;;;;9.60;9.30;;;-2.30;99.90;;;;;;5121747;28;20321;-85
2022/01/07 06:26:52;;;;;;;9.83;9.53;;;-2.30;99.90;;;;;;5121075;28;20229;-84
2022/01/07 06:29:32;;;;;;;9.80;9.50;;;-2.20;99.90;;;;;;5120960;28;20236;-85
2022/01/07 06:31:59;;;;;;;10.00;9.70;;;-2.20;99.90;;;;;;5120920;28;20237;-85
2022/01/07 06:34:29;;;;;;;9.90;9.60;;;-2.10;99.90;;;;;;5120399;28;20237;-84
2022/01/07 06:36:58;;;;;;;10.00;9.70;;;-2.10;99.90;;;;;;5120752;28;20259;-86
2022/01/07 06:39:28;;;;;;;10.17;9.87;;;-2.00;99.90;;;;;;5122601;28;20282;-86
2022/01/07 06:41:58;;;;;;;10.13;9.83;;;-2.00;99.90;;;;;;5128625;28;20225;-85
2022/01/07 06:44:29;;;;;;;9.87;9.57;;;-2.00;99.90;;;;;;5138917;27;20273;-85
2022/01/07 06:46:57;;;;;;;9.83;9.53;;;-1.90;99.90;;;;;;5121398;28;20247;-85
2022/01/07 06:49:26;;;;;;;10.00;9.70;;;-1.90;99.90;;;;;;5121890;28;20244;-85
2022/01/07 06:51:56;;;;;;;9.80;9.50;;;-1.80;99.90;;;;;;5120588;28;20237;-85
2022/01/07 06:54:25;;;;;;;10.00;9.70;;;-1.80;99.90;;;;;;5120195;28;20228;-85
2022/01/07 06:56:54;;;;;;;10.07;9.77;;;-1.80;99.90;;;;;;5120454;28;20219;-84
2022/01/07 06:59:23;;;;;;;10.40;10.10;;;-1.70;99.90;;;;;;5125792;27;20258;-85
2022/01/07 07:01:53;;;;;;;10.10;9.80;;;-1.70;99.90;;;;;;5122478;27;20230;-85
2022/01/07 07:04:20;;;;;;;10.30;10.00;;;-1.60;99.90;;;;;;5146986;22;20240;-78
2022/01/07 07:06:48;;;;;;;10.13;9.83;;;-1.60;99.90;;;;;;5122339;28;20304;-78
2022/01/07 07:09:17;;;;;;;10.30;10.00;;;-1.50;99.90;;;;;;5107516;28;20303;-79
2022/01/07 07:11:45;;;;;;;9.90;9.60;;;-1.50;99.90;;;;;;5102546;28;20306;-79
2022/01/07 07:14:12;;;;;;;9.70;9.40;;;-1.40;99.90;;;;;;5089236;28;20233;-79
2022/01/07 07:16:41;;;;;;;9.73;9.43;;;-1.40;99.90;;;;;;5082889;28;20255;-78
2022/01/07 07:19:11;;;;;;;9.70;9.40;;;-1.40;99.90;;;;;;5082710;28;20285;-78
2022/01/07 07:21:39;;;;;;;9.73;9.43;;;-1.30;99.90;;;;;;5083127;28;20224;-79
2022/01/07 07:24:09;;;;;;;9.60;9.30;;;-1.30;99.90;;;;;;5082654;28;20219;-78
2022/01/07 07:26:38;;;;;;;9.50;9.20;;;-1.20;99.90;;;;;;5082753;28;20237;-79
2022/01/07 07:29:08;;;;;;;9.90;9.60;;;-1.20;99.90;;;;;;5083201;28;20249;-80
2022/01/07 07:31:43;;;;;;;9.70;9.40;;;-1.10;99.90;;;;;;5082417;28;20284;-80
2022/01/07 07:37:16;;;;;;;9.90;9.60;;;-1.10;99.90;;;;;;5161345;27;20538;-80
2022/01/07 07:39:44;;;;;;;9.87;9.57;;;-1.10;99.90;;;;;;5142410;27;20246;-80
2022/01/07 07:42:12;;;;;;;9.70;9.40;;;-1.00;99.90;;;;;;5139890;27;20241;-78
2022/01/07 07:44:41;;;;;;;9.90;9.60;;;-1.00;99.90;;;;;;5139972;27;20274;-79
2022/01/07 07:47:11;;;;;;;9.90;9.60;;;-1.00;99.90;;;;;;5139951;27;20269;-78
2022/01/07 07:49:41;;;;;;;9.63;9.33;;;-1.00;99.90;;;;;;5139912;27;20303;-78
2022/01/07 07:52:09;;;;;;;9.50;9.20;;;-1.00;99.90;;;;;;5140369;27;20260;-79
2022/01/07 07:54:42;;;;;;;9.47;9.17;;;-1.00;99.90;;;;;;5151309;27;20199;-77
2022/01/07 07:57:09;;;;;;;9.90;9.60;;;-1.00;99.90;;;;;;5150479;27;20248;-79
2022/01/07 07:59:39;;;;;;;9.67;9.37;;;-0.90;99.90;;;;;;5149167;27;20234;-78
2022/01/07 08:02:09;;;;;;;9.67;9.37;;;-0.90;99.90;;;;;;5156497;27;20215;-76
2022/01/07 08:04:38;;;;;;;9.70;9.40;;;-0.90;99.90;;;;;;5157403;27;20226;-77
2022/01/07 08:07:06;;;;;;;9.50;9.20;;;-0.90;99.90;;;;;;5144749;27;20224;-79
2022/01/07 08:09:38;;;;;;;9.90;9.60;;;-0.90;99.90;;;;;;5146223;27;20231;-77
2022/01/07 08:12:19;;;;;;;9.73;9.43;;;-0.90;99.90;;;;;;5141608;27;20228;-78
2022/01/07 08:17:32;;;;;;;10.00;9.70;;;-0.80;99.90;;;;;;5139966;27;20257;-77
2022/01/07 08:20:00;;;;;;;9.87;9.57;;;-0.80;99.90;;;;;;5138730;27;20235;-78
2022/01/07 08:22:28;;;;;;;10.00;9.70;;;-0.70;99.90;;;;;;5138688;27;20479;-78
2022/01/07 08:24:57;;;;;;;9.83;9.53;;;-0.70;99.90;;;;;;5138226;27;20247;-78
2022/01/07 08:27:37;;;;;;;9.90;9.60;;;-0.70;99.90;;;;;;5138987;27;20223;-80
2022/01/07 08:30:13;;;;;;;10.27;9.97;;;-0.60;99.90;;;;;;5139171;27;20277;-78
2022/01/07 08:35:26;;;;;;;9.80;9.50;;;-0.60;99.90;;;;;;5138790;27;20235;-78
2022/01/07 08:37:54;;;;;;;10.30;10.00;;;-0.50;99.90;;;;;;5139067;27;20308;-78
2022/01/07 08:40:22;;;;;;;9.80;9.50;;;-0.50;99.90;;;;;;5139325;27;20235;-78
2022/01/07 08:42:53;;;;;;;9.87;9.57;;;-0.40;99.90;;;;;;5138275;27;20288;-78
2022/01/07 08:45:21;;;;;;;10.23;9.93;;;-0.40;99.90;;;;;;5138633;27;20231;-78
2022/01/07 08:47:51;;;;;;;10.00;9.70;;;-0.40;99.90;;;;;;5129754;27;20259;-79
2022/01/07 08:50:20;;;;;;;9.80;9.50;;;-0.40;99.90;;;;;;5134643;27;20236;-78
2022/01/07 08:52:50;;;;;;;10.00;9.70;;;-0.30;99.90;;;;;;5129807;28;20231;-79
2022/01/07 08:55:18;;;;;;;9.70;9.40;;;-0.30;99.90;;;;;;5125846;28;20256;-78
2022/01/07 08:57:46;;;;;;;9.93;9.63;;;-0.30;99.90;;;;;;5126202;27;20231;-80
2022/01/07 09:00:24;;;;;;;9.80;9.50;;;-0.20;99.90;;;;;;5125842;27;20344;-79
2022/01/07 09:02:58;;;;;;;9.70;9.40;;;-0.20;99.90;;;;;;5125264;27;20242;-83
2022/01/07 09:05:26;;;;;;;9.60;9.30;;;-0.20;99.90;;;;;;5128200;28;20200;-83
2022/01/07 09:07:54;;;;;;;9.80;9.50;;;-0.20;99.90;;;;;;5131072;27;20217;-82
2022/01/07 09:10:23;;;;;;;9.70;9.40;;;-0.20;99.90;;;;;;5143888;27;20238;-81
2022/01/07 09:12:53;;;;;;;9.77;9.47;;;-0.10;99.90;;;;;;5143415;27;20252;-82
2022/01/07 09:15:33;;;;;;;9.63;9.33;;;-0.10;99.90;;;;;;5142303;27;20220;-81
2022/01/07 09:18:09;;;;;;;9.50;9.20;;;-0.10;99.90;;;;;;5140600;27;20254;-82
2022/01/07 09:20:39;;;;;;;9.63;9.33;;;0.00;99.90;;;;;;5128387;27;20314;-83
2022/01/07 09:23:08;;;;;;;9.67;9.37;;;0.00;99.90;;;;;;5140239;27;20289;-81
2022/01/07 09:25:38;;;;;;;9.20;8.90;;;0.00;99.90;;;;;;5139128;28;20221;-83
2022/01/07 09:28:10;;;;;;;9.40;9.10;;;0.00;99.90;;;;;;5141434;27;20215;-79
2022/01/07 09:30:41;;;;;;;9.77;9.47;;;0.10;99.90;;;;;;5139202;27;20274;-80
2022/01/07 09:33:09;;;;;;;9.70;9.40;;;0.10;99.90;;;;;;5128671;27;20298;-81
2022/01/07 09:35:38;;;;;;;9.43;9.13;;;0.10;99.90;;;;;;5126983;27;20239;-82
2022/01/07 09:38:07;;;;;;;9.30;9.00;;;0.10;99.90;;;;;;5127141;27;20282;-82
2022/01/07 09:40:36;;;;;;;9.60;9.30;;;0.10;99.90;;;;;;5126825;27;20259;-83
2022/01/07 09:43:06;;;;;;;9.80;9.50;;;0.20;99.90;;;;;;5125754;27;20286;-82
2022/01/07 09:45:39;;;;;;;9.53;9.23;;;0.20;99.90;;;;;;5124959;28;20225;-83
2022/01/07 09:48:08;;;;;;;9.70;9.40;;;0.20;99.90;;;;;;5126587;27;20227;-83
2022/01/07 09:50:37;;;;;;;9.50;9.20;;;0.20;99.90;;;;;;5123874;27;20233;-83
2022/01/07 09:53:07;;;;;;;9.23;8.93;;;0.20;99.90;;;;;;5123756;27;20289;-83
2022/01/07 09:55:36;;;;;;;9.70;9.40;;;0.20;99.90;;;;;;5125335;27;20221;-82
2022/01/07 09:58:05;;;;;;;9.77;9.47;;;0.20;99.90;;;;;;5126309;27;20233;-82
2022/01/07 10:00:35;;;;;;;9.57;9.27;;;0.20;99.90;;;;;;5124821;27;20225;-81
2022/01/07 10:03:10;;;;;;;9.53;9.23;;;0.20;99.90;;;;;;5124444;27;20692;-82
2022/01/07 10:05:49;;;;;;;9.27;8.97;;;0.30;99.90;;;;;;5125516;27;20298;-81
2022/01/07 10:08:28;;;;;;;9.40;9.10;;;0.30;99.90;;;;;;5125703;27;20246;-82
2022/01/07 10:11:15;;;;;;;9.37;9.07;;;0.30;99.90;;;;;;5125464;27;20229;-81
2022/01/07 10:13:45;;;;;;;9.30;9.00;;;0.30;99.90;;;;;;5125646;27;20229;-82
2022/01/07 10:16:21;;;;;;;9.60;9.30;;;0.30;99.90;;;;;;5138697;27;20224;-80
2022/01/07 10:18:54;;;;;;;9.53;9.23;;;0.30;99.90;;;;;;5133553;27;20228;-81
2022/01/07 10:21:23;;;;;;;9.40;9.10;;;0.40;99.90;;;;;;5126293;27;20240;-82
2022/01/07 10:24:01;;;;;;;9.73;9.43;;;0.40;99.90;;;;;;5125818;27;20242;-82
2022/01/07 10:26:29;;;;;;;9.67;9.37;;;0.50;99.90;;;;;;5125024;27;20230;-81
2022/01/07 10:28:58;;;;;;;9.60;9.30;;;0.50;99.90;;;;;;5124764;27;20237;-81
2022/01/07 10:31:26;;;;;;;9.50;9.20;;;0.50;99.90;;;;;;5125597;27;20232;-82
2022/01/07 10:34:05;;;;;;;9.80;9.50;;;0.50;99.90;;;;;;5131344;27;20288;-81
2022/01/07 10:36:45;;;;;;;9.70;9.40;;;0.60;99.90;;;;;;5134266;27;20247;-81
2022/01/07 10:39:13;;;;;;;9.33;9.03;;;0.70;99.90;;;;;;5124814;27;20234;-82
2022/01/07 10:41:59;;;;;;;9.80;9.50;;;0.70;99.90;;;;;;5124093;27;20229;-80
2022/01/07 10:44:29;;;;;;;9.40;9.10;;;0.70;99.90;;;;;;5124849;27;20235;-81
2022/01/07 10:46:58;;;;;;;9.47;9.17;;;0.70;99.90;;;;;;5125247;27;20232;-81
2022/01/07 10:49:38;;;;;;;9.33;9.03;;;0.70;99.90;;;;;;5119139;27;20248;-82
2022/01/07 10:52:07;;;;;;;9.43;9.13;;;0.80;99.90;;;;;;5135750;27;20236;-82
2022/01/07 10:54:35;;;;;;;8.90;8.70;;;0.80;99.90;;;;;;5129504;27;21203;-82
2022/01/07 10:57:15;;;;;;;9.30;9.00;;;0.80;99.90;;;;;;5136144;27;20229;-82
2022/01/07 10:59:45;;;;;;;9.47;9.17;;;0.90;99.90;;;;;;5140127;27;20247;-81
2022/01/07 11:02:13;;;;;;;9.60;9.30;;;0.90;99.90;;;;;;5134041;27;20236;-81
2022/01/07 11:04:45;;;;;;;9.47;9.17;;;0.90;99.90;;;;;;5127878;27;20220;-82
2022/01/07 11:07:12;;;;;;;9.53;9.23;;;0.90;99.90;;;;;;5126755;27;20217;-81
2022/01/07 11:09:42;;;;;;;9.40;9.10;;;0.90;99.90;;;;;;5125672;27;20286;-81
2022/01/07 11:12:10;;;;;;;9.57;9.27;;;1.00;99.90;;;;;;5125550;27;20224;-82
2022/01/07 11:14:41;;;;;;;9.40;9.10;;;1.10;99.90;;;;;;5125020;27;20603;-85
2022/01/07 11:17:16;;;;;;;9.30;9.00;;;1.10;99.90;;;;;;5124557;27;20227;-87
2022/01/07 11:19:59;;;;;;;9.60;9.30;;;1.20;99.90;;;;;;5125192;27;20232;-82
2022/01/07 11:22:27;;;;;;;9.50;9.20;;;1.30;99.90;;;;;;5126524;27;20263;-88
2022/01/07 11:25:13;;;;;;;9.53;9.23;;;1.30;99.90;;;;;;5128649;28;20239;-83
2022/01/07 11:30:35;;;;;;;8.87;8.67;;;1.40;99.90;;;;;;5126744;27;20261;-83
2022/01/07 11:33:19;;;;;;;9.30;9.00;;;1.40;99.90;;;;;;5126731;27;20251;-83
2022/01/07 11:35:51;;;;;;;9.43;9.13;;;1.40;99.90;;;;;;5125969;27;20239;-83
2022/01/07 11:38:44;;;;;;;9.47;9.17;;;1.50;99.90;;;;;;5125297;27;20232;-84
2022/01/07 11:41:31;;;;;;;9.50;9.20;;;1.40;99.90;;;;;;5126135;27;20323;-82
2022/01/07 11:44:12;;;;;;;9.33;9.03;;;1.30;99.90;;;;;;5112977;27;20270;-83
2022/01/07 11:46:40;;;;;;;9.50;9.20;;;1.30;99.90;;;;;;5125918;27;20240;-82
2022/01/07 11:49:34;;;;;;;9.30;9.00;;;1.30;99.90;;;;;;5125936;27;20315;-82
2022/01/07 11:52:49;;;;;;;8.80;8.60;;;1.30;99.90;;;;;;5130735;27;20280;-85
2022/01/07 11:55:35;;;;;;;9.47;9.17;;;1.30;99.90;;;;;;5135517;27;20251;-83
2022/01/07 11:58:06;;;;;;;9.20;8.90;;;1.30;99.90;;;;;;5135689;28;20247;-84
2022/01/07 12:03:48;;;;;;;9.50;9.20;;;1.20;99.90;;;;;;5132564;28;20267;-84
2022/01/07 12:06:51;;;;;;;9.03;8.80;;;1.20;99.90;;;;;;5131766;27;20232;-84
2022/01/07 12:09:38;;;;;;;9.13;8.83;;;1.20;99.90;;;;;;5134101;27;21137;-83
2022/01/07 12:12:17;;;;;;;8.80;8.60;;;1.20;99.90;;;;;;5129749;27;20204;-84
2022/01/07 12:14:56;;;;;;;8.87;8.67;;;1.10;99.90;;;;;;5133500;27;20247;-87
2022/01/07 12:17:27;;;;;;;8.90;8.70;;;1.10;99.90;;;;;;5110351;28;20240;-85
2022/01/07 12:20:48;;;;;;;8.73;8.53;;;1.10;99.90;;;;;;5109424;28;20228;-86
2022/01/07 12:23:25;;;;;;;8.70;8.50;;;1.10;99.90;;;;;;5099774;28;20234;-85
2022/01/07 12:26:03;;;;;;;8.63;8.43;;;1.20;99.90;;;;;;5106862;28;20233;-87
2022/01/07 12:28:42;;;;;;;8.97;8.77;;;1.20;99.90;;;;;;5107090;28;20312;-86
2022/01/07 12:31:12;;;;;;;8.60;8.40;;;1.20;99.90;;;;;;5107895;28;20237;-85
2022/01/07 12:33:50;;;;;;;8.60;8.40;;;1.20;99.90;;;;;;5107109;28;20237;-85
2022/01/07 12:36:27;;;;;;;8.63;8.43;;;1.30;99.90;;;;;;5107141;28;20293;-85
2022/01/07 12:44:40;;;;;;;9.17;8.87;;;1.30;99.90;;;;;;5119352;28;20229;-86
2022/01/07 12:47:10;;;;;;;9.13;8.83;;;1.20;99.90;;;;;;5136732;28;20201;-86
2022/01/07 12:49:41;;;;;;;9.50;9.20;;;1.10;99.90;;;;;;5142950;27;20223;-85
2022/01/07 12:52:18;;;;;;;9.93;9.63;;;1.00;99.90;;;;;;5141829;27;20221;-86
2022/01/07 12:55:06;;;;;;;10.00;9.70;;;1.00;99.90;;;;;;5141345;27;20228;-86
2022/01/07 12:57:44;;;;;;;9.87;9.57;;;0.90;99.90;;;;;;5139366;27;20247;-86
2022/01/07 13:00:21;;;;;;;9.87;9.57;;;0.70;99.90;;;;;;5143864;27;21074;-86
2022/01/07 13:02:51;;;;;;;10.00;9.70;;;0.70;99.90;;;;;;5143975;27;20272;-87
2022/01/07 13:05:30;;;;;;;9.40;9.10;;;0.70;99.90;;;;;;5118483;22;20237;-80
2022/01/07 13:08:00;;;;;;;9.80;9.50;;;0.70;99.90;;;;;;5112169;28;20256;-81
2022/01/07 13:10:37;;;;;;;9.67;9.37;;;0.60;99.90;;;;;;5119100;28;20229;-86
2022/01/07 13:13:15;;;;;;;9.90;9.60;;;0.60;99.90;;;;;;5119903;27;20255;-84
2022/01/07 13:15:53;;;;;;;9.50;9.20;;;0.50;99.90;;;;;;5099415;28;20249;-81
2022/01/07 13:18:31;;;;;;;10.00;9.70;;;0.50;99.90;;;;;;5096023;28;20253;-85
2022/01/07 13:21:11;;;;;;;9.60;9.30;;;0.50;99.90;;;;;;5074447;28;20281;-84
2022/01/07 13:23:46;;;;;;;9.40;9.10;;;0.50;99.90;;;;;;5074041;28;20246;-84
2022/01/07 13:26:17;;;;;;;9.60;9.30;;;0.50;99.90;;;;;;5073360;28;20215;-85
2022/01/07 13:28:57;;;;;;;9.20;8.90;;;0.50;99.90;;;;;;5076062;28;20253;-84
2022/01/07 13:31:35;;;;;;;9.33;9.03;;;0.40;99.90;;;;;;5072732;28;20345;-83
2022/01/07 13:34:04;;;;;;;9.37;9.07;;;0.40;99.90;;;;;;5089911;28;20222;-85